Tuxtla Gutierrez, Mexico

9:17 AM CST on February 12, 2016 (GMT -0600)
Chiapa de Corzo, Ribera de cupia | | Change Station
CLOSE
Current Station
Personal Weather Station
Location: Amatal, CHIAPAS
Elevation: 1230 ft
Nearby Weather Stations

Elev 1230 ft 16.67 °N, 93.02 °W | Updated 2 seconds ago

Clear
Clear
68.2 °F
Feels Like 68.2 °F
N
0.0
Wind Variable Wind from WSW
Gusts 0.0 mph

Today
High -- | Low -- °F
--% Chance of Precip.
Yesterday
High -- | Low -- °F
Precip. -- in
Pressure 30.16 in
Visibility 7.0 miles
Clouds Clear
Dew Point 54 °F
Humidity 61%
Rainfall 0.00 in
Snow Depth Not available.
6:40 AM 6:13 PM
Waxing Crescent, 21% visible
METAR MMTG 121449Z 33006KT 7SM SKC 17/10 A3022 RMK SLP213 54004 963 HZY
Pressure 30.16 in
Visibility 7.0 miles
Clouds Clear
Dew Point 54 °F
Humidity 61%
Rainfall 0.00 in
Snow Depth Not available.
6:40 AM 6:13 PM
Waxing Crescent, 21% visible
METAR MMTG 121449Z 33006KT 7SM SKC 17/10 A3022 RMK SLP213 54004 963 HZY

10-Day Weather Forecast

No radar image for this location.
×

Almanac

Astronomy

Feb. 12, 2016 Rise Set
Actual Time
Civil Twilight
Nautical Twilight
Astronomical Twilight
Moon
Length of Visible Light
Length of Day
Tomorrow will be .
, % of the Moon is Illuminated

Today's Extremes

Country Highs Country Lows

Community

WunderPhotos

Upload Photos

1,892,325 photos uploaded!

WunderBlog® & News

Nearby

Air Quality

  Air Quality AQ Index Pollutant
Not available.

Snow Depth

Station Depth Elevation

Earthquake Activity

City Distance Mag. Time & Date
Minimum magnitude displayed is 2.5.

Coastal Water Temperatures

Place Temperature

Stations

Nearby Weather Stations

Station Location Temp. Windchill Dew Point Humidity Wind Precip. Elev Updated Type